createdAt,value
2019-04-03T00:00:41.050Z,13.90
2019-04-03T00:01:41.226Z,13.92
2019-04-03T00:02:41.403Z,13.89
2019-04-03T00:03:41.579Z,13.90
2019-04-03T00:04:41.753Z,13.95
2019-04-03T00:06:42.111Z,13.90
2019-04-03T00:07:42.281Z,13.78
2019-04-03T00:08:42.455Z,13.83
2019-04-03T00:09:42.638Z,13.74
2019-04-03T00:10:42.810Z,13.75
2019-04-03T00:11:43.024Z,13.90
2019-04-03T00:12:43.166Z,13.87
2019-04-03T00:13:43.339Z,13.89
2019-04-03T00:14:43.514Z,13.93
2019-04-03T00:15:44.637Z,13.99
2019-04-03T00:16:45.530Z,14.04
2019-04-03T00:17:45.990Z,14.04
2019-04-03T00:18:46.820Z,14.10
2019-04-03T00:19:45.833Z,13.95
2019-04-03T00:20:44.576Z,13.87
2019-04-03T00:21:44.750Z,13.95
2019-04-03T00:22:46.615Z,14.00
2019-04-03T00:23:45.112Z,14.04
2019-04-03T00:24:45.281Z,14.03
2019-04-03T00:25:45.460Z,13.99
2019-04-03T00:26:45.640Z,14.08
2019-04-03T00:27:45.815Z,13.97
2019-04-03T00:28:45.997Z,13.93
2019-04-03T00:29:46.229Z,13.90
2019-04-03T00:30:46.350Z,13.89
2019-04-03T00:31:46.528Z,13.90
2019-04-03T00:32:46.708Z,13.97
2019-04-03T00:33:46.881Z,13.97
2019-04-03T00:34:47.059Z,13.95
2019-04-03T00:35:47.235Z,13.96
2019-04-03T00:36:47.414Z,14.08
2019-04-03T00:37:47.587Z,14.08
2019-04-03T00:38:47.763Z,14.10
2019-04-03T00:39:47.940Z,14.12
2019-04-03T00:40:48.175Z,14.17
2019-04-03T00:41:48.292Z,14.07
2019-04-03T00:42:48.469Z,14.08
2019-04-03T00:43:48.652Z,14.07
2019-04-03T00:44:48.837Z,13.99
2019-04-03T00:45:49.142Z,13.89
2019-04-03T00:46:49.180Z,13.86
2019-04-03T00:47:49.361Z,13.87
2019-04-03T00:48:49.543Z,13.89
2019-04-03T00:49:49.724Z,13.87
2019-04-03T00:50:49.886Z,13.87
2019-04-03T00:51:50.062Z,13.77
2019-04-03T00:52:50.244Z,13.74
2019-04-03T00:53:50.414Z,13.79
2019-04-03T00:54:50.590Z,13.77
2019-04-03T00:55:50.767Z,13.78
2019-04-03T00:56:50.949Z,13.68
2019-04-03T00:57:51.121Z,13.67
2019-04-03T00:58:51.295Z,13.71
2019-04-03T00:59:51.471Z,13.68
2019-04-03T01:00:51.662Z,13.71
2019-04-03T01:01:51.835Z,13.71
2019-04-03T01:02:52.001Z,13.71
2019-04-03T01:03:52.180Z,13.46
2019-04-03T01:04:52.353Z,13.53
2019-04-03T01:05:52.528Z,13.59
2019-04-03T01:06:52.709Z,13.57
2019-04-03T01:07:53.065Z,13.71
2019-04-03T01:08:53.058Z,13.60
2019-04-03T01:09:53.237Z,13.60
2019-04-03T01:10:53.414Z,13.67
2019-04-03T01:11:53.590Z,13.65
2019-04-03T01:12:53.770Z,13.81
2019-04-03T01:13:53.939Z,13.74
2019-04-03T01:14:54.130Z,13.71
2019-04-03T01:15:54.446Z,13.79
2019-04-03T01:16:54.467Z,13.83
2019-04-03T01:17:54.640Z,13.90
2019-04-03T01:18:54.819Z,13.81
2019-04-03T01:19:54.999Z,13.79
2019-04-03T01:20:55.169Z,13.85
2019-04-03T01:21:55.346Z,13.87
2019-04-03T01:22:55.521Z,13.57
2019-04-03T01:23:55.834Z,13.37
2019-04-03T01:24:55.879Z,13.23
2019-04-03T01:25:56.053Z,13.27
2019-04-03T01:26:56.228Z,13.22
2019-04-03T01:27:56.408Z,13.15
2019-04-03T01:28:56.580Z,13.19
2019-04-03T01:29:56.753Z,13.12
2019-04-03T01:30:56.929Z,13.03
2019-04-03T01:31:57.111Z,13.19
2019-04-03T01:32:57.283Z,13.19
2019-04-03T01:33:57.455Z,13.19
2019-04-03T01:34:57.630Z,13.28
2019-04-03T01:35:57.805Z,13.37
2019-04-03T01:36:58.027Z,13.19
2019-04-03T01:37:58.158Z,13.22
2019-04-03T01:38:58.335Z,13.20
2019-04-03T01:39:58.541Z,13.22
2019-04-03T01:40:58.686Z,13.12
2019-04-03T01:41:58.866Z,13.18
2019-04-03T01:42:59.135Z,13.19
2019-04-03T01:43:59.215Z,13.22
2019-04-03T01:44:59.416Z,13.23
2019-04-03T01:45:59.565Z,13.22
2019-04-03T01:46:59.769Z,13.15
2019-04-03T01:47:59.919Z,13.19
2019-04-03T01:49:00.093Z,13.20
2019-04-03T01:50:00.346Z,13.20
2019-04-03T01:51:00.442Z,13.27
2019-04-03T01:52:00.998Z,13.31
2019-04-03T01:53:02.437Z,13.22
2019-04-03T01:54:02.796Z,13.30
2019-04-03T01:55:03.342Z,13.27
2019-04-03T01:56:02.696Z,13.18
2019-04-03T01:57:01.500Z,13.28
2019-04-03T01:58:01.750Z,13.31
2019-04-03T01:59:01.980Z,13.30
2019-04-03T02:00:02.019Z,13.30
2019-04-03T02:01:02.191Z,13.22
2019-04-03T02:02:02.370Z,13.37
2019-04-03T02:03:02.547Z,13.30
2019-04-03T02:04:02.724Z,13.30
2019-04-03T02:05:03.021Z,13.38
2019-04-03T02:06:03.094Z,13.25
2019-04-03T02:07:03.251Z,13.25
2019-04-03T02:08:04.119Z,13.20
2019-04-03T02:09:03.670Z,13.25
2019-04-03T02:10:03.857Z,13.20
2019-04-03T02:11:04.023Z,13.13
2019-04-03T02:12:04.243Z,13.16
2019-04-03T02:13:04.379Z,13.08
2019-04-03T02:14:04.555Z,13.08
2019-04-03T02:15:04.733Z,12.93
2019-04-03T02:16:05.623Z,12.85
2019-04-03T02:17:05.049Z,12.79
2019-04-03T02:18:05.240Z,12.78
2019-04-03T02:19:05.401Z,12.75
2019-04-03T02:20:05.580Z,12.76
2019-04-03T02:21:05.757Z,12.90
2019-04-03T02:22:05.933Z,12.95
2019-04-03T02:23:06.106Z,12.97
2019-04-03T02:24:06.282Z,12.94
2019-04-03T02:25:06.458Z,13.00
2019-04-03T02:26:06.647Z,12.95
2019-04-03T02:27:06.812Z,12.90
2019-04-03T02:28:06.986Z,12.90
2019-04-03T02:29:08.716Z,12.95
2019-04-03T02:30:07.395Z,13.03
2019-04-03T02:31:07.527Z,13.08
2019-04-03T02:32:07.691Z,13.03
2019-04-03T02:33:07.917Z,13.00
2019-04-03T02:34:08.045Z,13.01
2019-04-03T02:35:08.470Z,13.01
2019-04-03T02:36:10.903Z,13.00
2019-04-03T02:37:08.721Z,12.95
2019-04-03T02:38:08.748Z,12.97
2019-04-03T02:39:09.633Z,12.80
2019-04-03T02:40:09.059Z,12.86
2019-04-03T02:41:09.232Z,12.90
2019-04-03T02:42:09.942Z,12.87
2019-04-03T02:43:13.457Z,12.94
2019-04-03T02:44:09.760Z,12.90
2019-04-03T02:45:09.940Z,12.82
2019-04-03T02:46:10.253Z,12.73
2019-04-03T02:47:10.431Z,12.65
2019-04-03T02:48:10.651Z,12.73
2019-04-03T02:49:11.129Z,12.67
2019-04-03T02:50:13.942Z,12.67
2019-04-03T02:51:10.988Z,12.50
2019-04-03T02:52:11.165Z,12.46
2019-04-03T02:53:11.411Z,12.42
2019-04-03T02:54:11.793Z,12.31
2019-04-03T02:55:11.704Z,12.40
2019-04-03T02:56:13.271Z,12.40
2019-04-03T02:57:12.047Z,12.37
2019-04-03T02:58:12.232Z,12.35
2019-04-03T02:59:12.402Z,12.27
2019-04-03T03:00:12.703Z,12.29
2019-04-03T03:01:12.739Z,12.25
2019-04-03T03:02:13.610Z,12.37
2019-04-03T03:03:16.111Z,12.37
2019-04-03T03:04:13.271Z,12.29
2019-04-03T03:05:13.479Z,12.35
2019-04-03T03:06:13.623Z,12.29
2019-04-03T03:07:13.817Z,12.40
2019-04-03T03:08:14.671Z,12.22
2019-04-03T03:09:14.528Z,12.24
2019-04-03T03:10:18.629Z,12.20
2019-04-03T03:11:14.537Z,12.28
2019-04-03T03:12:14.717Z,12.24
2019-04-03T03:13:14.888Z,12.40
2019-04-03T03:14:15.214Z,12.36
2019-04-03T03:15:15.497Z,12.36
2019-04-03T03:16:18.145Z,12.35
2019-04-03T03:17:15.596Z,12.35
2019-04-03T03:18:16.024Z,12.37
2019-04-03T03:19:15.960Z,12.22
2019-04-03T03:20:16.124Z,12.20
2019-04-03T03:21:16.298Z,12.35
2019-04-03T03:22:18.061Z,12.24
2019-04-03T03:23:16.670Z,12.24
2019-04-03T03:24:16.826Z,12.17
2019-04-03T03:25:17.224Z,12.10
2019-04-03T03:26:17.535Z,12.21
2019-04-03T03:27:17.357Z,12.12
2019-04-03T03:28:17.529Z,12.25
2019-04-03T03:29:23.755Z,12.24
2019-04-03T03:30:37.141Z,12.31
2019-04-03T03:31:18.953Z,12.25
2019-04-03T03:32:21.790Z,12.28
2019-04-03T03:33:29.955Z,12.21
2019-04-03T03:34:43.820Z,12.22
2019-04-03T03:35:27.983Z,12.28
2019-04-03T03:36:23.465Z,12.21
2019-04-03T03:37:19.149Z,12.25
2019-04-03T03:38:19.286Z,12.22
2019-04-03T03:39:19.472Z,12.22
2019-04-03T03:40:19.642Z,12.24
2019-04-03T03:41:23.265Z,12.24
2019-04-03T03:42:19.999Z,12.24
2019-04-03T03:43:20.169Z,12.22
2019-04-03T03:44:20.449Z,12.17
2019-04-03T03:45:21.426Z,12.25
2019-04-03T03:46:20.700Z,12.21
2019-04-03T03:47:20.875Z,12.28
2019-04-03T03:48:21.049Z,12.35
2019-04-03T03:49:21.221Z,12.21
2019-04-03T03:50:23.885Z,12.24
2019-04-03T03:51:22.139Z,12.29
2019-04-03T03:52:21.749Z,12.22
2019-04-03T03:53:22.292Z,12.20
2019-04-03T03:54:22.100Z,12.27
2019-04-03T03:55:24.319Z,12.29
2019-04-03T03:56:22.936Z,12.24
2019-04-03T03:57:22.629Z,12.22
2019-04-03T03:58:22.811Z,12.24
2019-04-03T03:59:23.140Z,12.27
2019-04-03T04:00:24.400Z,12.27
2019-04-03T04:01:23.341Z,12.04
2019-04-03T04:02:23.652Z,12.02
2019-04-03T04:03:23.683Z,11.88
2019-04-03T04:04:23.986Z,11.90
2019-04-03T04:05:24.047Z,11.94
2019-04-03T04:06:28.246Z,11.88
2019-04-03T04:08:24.551Z,11.88
2019-04-03T04:09:24.724Z,11.91
2019-04-03T04:10:26.290Z,11.87
2019-04-03T04:11:25.075Z,11.73
2019-04-03T04:12:25.322Z,11.73
2019-04-03T04:13:26.164Z,11.77
2019-04-03T04:14:25.876Z,11.75
2019-04-03T04:15:28.873Z,11.73
2019-04-03T04:16:25.935Z,11.80
2019-04-03T04:17:26.109Z,11.87
2019-04-03T04:18:26.287Z,11.90
2019-04-03T04:19:30.597Z,11.88
2019-04-03T04:20:26.701Z,11.87
2019-04-03T04:21:26.976Z,11.99
2019-04-03T04:22:28.109Z,12.04
2019-04-03T04:23:27.298Z,11.88
2019-04-03T04:24:27.972Z,12.02
2019-04-03T04:25:29.758Z,12.03
2019-04-03T04:26:27.698Z,12.02
2019-04-03T04:27:28.034Z,12.07
2019-04-03T04:28:28.051Z,11.99
2019-04-03T04:29:28.352Z,12.04
2019-04-03T04:30:28.420Z,12.07
2019-04-03T04:31:28.585Z,12.10
2019-04-03T04:32:29.008Z,12.04
2019-04-03T04:33:28.996Z,12.09
2019-04-03T04:34:29.324Z,11.88
2019-04-03T04:35:29.573Z,11.91
2019-04-03T04:36:29.517Z,11.86
2019-04-03T04:37:29.694Z,11.86
2019-04-03T04:38:29.868Z,11.75
2019-04-03T04:39:30.045Z,11.80
2019-04-03T04:40:31.279Z,11.90
2019-04-03T04:41:32.236Z,11.94
2019-04-03T04:42:30.570Z,11.95
2019-04-03T04:43:30.746Z,11.94
2019-04-03T04:44:30.922Z,11.95
2019-04-03T04:45:33.316Z,12.03
2019-04-03T04:46:31.273Z,11.91
2019-04-03T04:47:31.449Z,11.94
2019-04-03T04:48:31.626Z,11.81
2019-04-03T04:49:32.215Z,11.81
2019-04-03T04:50:31.975Z,11.69
2019-04-03T04:51:32.150Z,11.73
2019-04-03T04:52:32.336Z,11.84
2019-04-03T04:53:33.167Z,11.88
2019-04-03T04:54:32.760Z,12.02
2019-04-03T04:55:34.452Z,12.00
2019-04-03T04:56:33.299Z,12.04
2019-04-03T04:57:33.315Z,12.04
2019-04-03T04:58:33.419Z,12.17
2019-04-03T04:59:35.893Z,12.09
2019-04-03T05:00:33.936Z,12.13
2019-04-03T05:01:33.945Z,11.99
2019-04-03T05:02:34.123Z,12.09
2019-04-03T05:03:34.297Z,12.13
2019-04-03T05:04:34.548Z,12.04
2019-04-03T05:05:34.654Z,12.04
2019-04-03T05:06:34.833Z,12.07
2019-04-03T05:07:35.012Z,12.06
2019-04-03T05:08:35.185Z,11.97
2019-04-03T05:09:35.530Z,11.91
2019-04-03T05:10:36.934Z,11.81
2019-04-03T05:11:38.265Z,11.77
2019-04-03T05:12:35.887Z,11.88
2019-04-03T05:13:36.057Z,11.84
2019-04-03T05:14:36.233Z,11.86
2019-04-03T05:15:36.409Z,11.87
2019-04-03T05:16:36.791Z,11.97
2019-04-03T05:17:37.673Z,11.95
2019-04-03T05:18:36.973Z,11.90
2019-04-03T05:19:37.675Z,11.86
2019-04-03T05:20:37.358Z,11.90
2019-04-03T05:21:37.612Z,11.62
2019-04-03T05:22:37.702Z,11.69
2019-04-03T05:23:37.872Z,11.68
2019-04-03T05:24:38.044Z,11.66
2019-04-03T05:25:38.219Z,11.52
2019-04-03T05:26:38.395Z,11.57
2019-04-03T05:27:38.570Z,11.55
2019-04-03T05:28:38.753Z,11.66
2019-04-03T05:29:38.922Z,11.45
2019-04-03T05:30:39.099Z,11.41
2019-04-03T05:31:39.532Z,11.44
2019-04-03T05:32:41.166Z,11.43
2019-04-03T05:33:41.564Z,11.37
2019-04-03T05:34:39.801Z,11.52
2019-04-03T05:35:40.021Z,11.43
2019-04-03T05:36:40.152Z,11.50
2019-04-03T05:37:40.365Z,11.47
2019-04-03T05:38:40.502Z,11.48
2019-04-03T05:39:40.677Z,11.43
2019-04-03T05:40:40.858Z,11.48
2019-04-03T05:41:41.134Z,11.54
2019-04-03T05:42:41.207Z,11.43
2019-04-03T05:43:41.437Z,11.54
2019-04-03T05:44:41.562Z,11.57
2019-04-03T05:45:42.305Z,11.59
2019-04-03T05:46:42.107Z,11.54
2019-04-03T05:47:42.101Z,11.50
2019-04-03T05:48:42.279Z,11.68
2019-04-03T05:49:42.449Z,11.77
2019-04-03T05:50:42.623Z,11.75
2019-04-03T05:52:42.975Z,11.68
2019-04-03T05:53:43.170Z,11.70
2019-04-03T05:55:43.496Z,11.83
2019-04-03T05:56:43.679Z,11.80
2019-04-03T05:57:45.990Z,11.86
2019-04-03T05:58:54.475Z,11.84
2019-04-03T05:59:44.597Z,11.88
2019-04-03T06:00:44.372Z,11.90
2019-04-03T06:01:46.722Z,11.73
2019-04-03T06:02:44.725Z,11.95
2019-04-03T06:03:45.823Z,11.86
2019-04-03T06:04:45.134Z,11.75
2019-04-03T06:05:45.522Z,11.72
2019-04-03T06:06:46.839Z,11.73
2019-04-03T06:07:47.015Z,11.54
2019-04-03T06:08:45.783Z,11.69
2019-04-03T06:09:45.954Z,11.75
2019-04-03T06:10:46.168Z,11.70
2019-04-03T06:11:46.303Z,11.72
2019-04-03T06:12:46.736Z,11.70
2019-04-03T06:13:48.035Z,11.88
2019-04-03T06:14:49.608Z,11.94
2019-04-03T06:15:47.005Z,11.88
2019-04-03T06:16:47.244Z,11.86
2019-04-03T06:17:50.175Z,11.88
2019-04-03T06:18:48.315Z,12.03
2019-04-03T06:19:47.754Z,12.07
2019-04-03T06:20:48.160Z,12.03
2019-04-03T06:21:48.089Z,12.10
2019-04-03T06:22:49.848Z,12.13
2019-04-03T06:23:48.569Z,12.07
2019-04-03T06:24:48.614Z,12.13
2019-04-03T06:25:48.790Z,12.13
2019-04-03T06:26:48.962Z,12.25
2019-04-03T06:27:49.335Z,12.17
2019-04-03T06:28:49.572Z,12.27
2019-04-03T06:29:51.048Z,12.31
2019-04-03T06:30:49.669Z,12.04
2019-04-03T06:31:49.851Z,11.88
2019-04-03T06:32:50.129Z,11.91
2019-04-03T06:33:51.627Z,11.77
2019-04-03T06:34:50.381Z,11.88
2019-04-03T06:35:50.549Z,11.97
2019-04-03T06:36:51.157Z,11.81
2019-04-03T06:37:52.538Z,11.90
2019-04-03T06:38:51.068Z,12.03
2019-04-03T06:39:51.256Z,12.06
2019-04-03T06:40:51.418Z,12.10
2019-04-03T06:41:51.589Z,12.18
2019-04-03T06:42:51.918Z,12.27
2019-04-03T06:43:54.047Z,12.27
2019-04-03T06:44:53.845Z,12.20
2019-04-03T06:45:52.289Z,12.22
2019-04-03T06:46:54.003Z,12.20
2019-04-03T06:47:52.650Z,12.15
2019-04-03T06:48:55.199Z,12.10
2019-04-03T06:49:53.128Z,11.87
2019-04-03T06:50:53.165Z,11.95
2019-04-03T06:51:53.343Z,11.94
2019-04-03T06:52:53.734Z,11.73
2019-04-03T06:53:53.692Z,11.72
2019-04-03T06:54:53.870Z,11.75
2019-04-03T06:55:54.273Z,11.84
2019-04-03T06:56:54.241Z,11.69
2019-04-03T06:57:54.394Z,11.72
2019-04-03T06:58:54.570Z,11.72
2019-04-03T06:59:54.747Z,11.70
2019-04-03T07:00:55.267Z,11.73
2019-04-03T07:01:55.096Z,11.65
2019-04-03T07:02:55.344Z,11.63
2019-04-03T07:03:55.467Z,11.68
2019-04-03T07:04:55.637Z,11.78
2019-04-03T07:05:55.797Z,11.88
2019-04-03T07:06:56.671Z,11.90
2019-04-03T07:07:56.304Z,12.04
2019-04-03T07:08:56.339Z,12.00
2019-04-03T07:09:56.499Z,12.12
2019-04-03T07:10:56.749Z,12.13
2019-04-03T07:11:57.578Z,12.15
2019-04-03T07:12:57.022Z,12.09
2019-04-03T07:13:57.208Z,12.21
2019-04-03T07:14:57.674Z,12.20
2019-04-03T07:15:57.548Z,12.27
2019-04-03T07:17:00.285Z,12.31
2019-04-03T07:18:00.961Z,12.12
2019-04-03T07:18:58.073Z,12.21
2019-04-03T07:20:02.697Z,12.24
2019-04-03T07:20:58.450Z,12.25
2019-04-03T07:21:58.902Z,12.12
2019-04-03T07:22:59.402Z,12.03
2019-04-03T07:24:00.643Z,12.09
2019-04-03T07:24:59.274Z,12.21
2019-04-03T07:25:59.318Z,12.18
2019-04-03T07:26:59.491Z,12.15
2019-04-03T07:27:59.662Z,11.91
2019-04-03T07:28:59.843Z,11.78
2019-04-03T07:30:00.013Z,11.77
2019-04-03T07:31:00.189Z,11.80
2019-04-03T07:32:00.362Z,11.60
2019-04-03T07:33:00.540Z,11.69
2019-04-03T07:34:03.249Z,11.68
2019-04-03T07:35:01.138Z,11.63
2019-04-03T07:36:01.076Z,11.66
2019-04-03T07:37:01.245Z,11.83
2019-04-03T07:38:01.422Z,11.95
2019-04-03T07:39:01.593Z,11.99
2019-04-03T07:40:01.770Z,11.99
2019-04-03T07:41:01.945Z,12.22
2019-04-03T07:42:02.121Z,12.22
2019-04-03T07:43:02.298Z,12.24
2019-04-03T07:44:02.485Z,12.35
2019-04-03T07:45:03.116Z,12.36
2019-04-03T07:46:03.389Z,12.28
2019-04-03T07:47:04.033Z,12.40
2019-04-03T07:48:05.981Z,12.43
2019-04-03T07:49:03.483Z,12.43
2019-04-03T07:50:03.534Z,12.42
2019-04-03T07:51:03.705Z,12.43
2019-04-03T07:52:03.873Z,12.40
2019-04-03T07:53:04.044Z,12.43
2019-04-03T07:54:04.927Z,12.62
2019-04-03T07:55:04.394Z,12.64
2019-04-03T07:56:04.571Z,12.62
2019-04-03T07:57:04.747Z,12.57
2019-04-03T07:58:04.962Z,12.61
2019-04-03T07:59:05.108Z,12.65
2019-04-03T08:00:07.053Z,12.87
2019-04-03T08:01:05.780Z,12.87
2019-04-03T08:02:05.627Z,12.80
2019-04-03T08:03:06.122Z,12.91
2019-04-03T08:04:05.984Z,12.97
2019-04-03T08:05:06.151Z,12.90
2019-04-03T08:06:06.329Z,12.94
2019-04-03T08:07:06.511Z,12.95
2019-04-03T08:08:06.864Z,13.04
2019-04-03T08:09:09.315Z,12.98
2019-04-03T08:10:07.032Z,13.15
2019-04-03T08:11:07.206Z,13.20
2019-04-03T08:12:07.383Z,13.23
2019-04-03T08:13:07.734Z,13.13
2019-04-03T08:14:09.065Z,13.04
2019-04-03T08:15:08.063Z,12.90
2019-04-03T08:16:08.284Z,12.82
2019-04-03T08:17:08.263Z,12.78
2019-04-03T08:18:08.441Z,12.76
2019-04-03T08:19:08.813Z,12.87
2019-04-03T08:20:08.808Z,12.94
2019-04-03T08:21:08.955Z,13.00
2019-04-03T08:22:09.387Z,12.90
2019-04-03T08:23:09.563Z,12.61
2019-04-03T08:24:09.606Z,12.68
2019-04-03T08:25:12.153Z,12.73
2019-04-03T08:26:11.798Z,12.61
2019-04-03T08:27:10.083Z,12.70
2019-04-03T08:28:10.252Z,12.70
2019-04-03T08:29:10.429Z,12.76
2019-04-03T08:30:10.949Z,12.78
2019-04-03T08:31:11.842Z,12.85
2019-04-03T08:32:10.949Z,12.95
2019-04-03T08:33:17.490Z,12.90
2019-04-03T08:34:16.649Z,12.98
2019-04-03T08:35:20.858Z,13.03
2019-04-03T08:36:23.283Z,13.08
2019-04-03T08:37:11.826Z,13.12
2019-04-03T08:38:13.471Z,13.19
2019-04-03T08:39:15.164Z,13.19
2019-04-03T08:40:12.351Z,13.18
2019-04-03T08:41:12.528Z,13.16
2019-04-03T08:42:12.741Z,13.11
2019-04-03T08:43:14.142Z,13.28
2019-04-03T08:44:13.042Z,13.27
2019-04-03T08:45:13.224Z,13.38
2019-04-03T08:46:14.226Z,13.50
2019-04-03T08:47:14.312Z,13.47
2019-04-03T08:48:14.988Z,13.59
2019-04-03T08:49:14.143Z,13.47
2019-04-03T08:50:14.056Z,13.49
2019-04-03T08:51:14.351Z,13.46
2019-04-03T08:52:15.035Z,13.33
2019-04-03T08:53:14.577Z,13.22
2019-04-03T08:54:14.753Z,13.23
2019-04-03T08:55:14.931Z,13.22
2019-04-03T08:56:16.879Z,13.27
2019-04-03T08:57:15.291Z,13.22
2019-04-03T08:58:15.467Z,13.23
2019-04-03T08:59:15.951Z,13.31
2019-04-03T09:00:15.822Z,13.27
2019-04-03T09:01:15.997Z,13.39
2019-04-03T09:02:16.184Z,13.28
2019-04-03T09:03:16.354Z,13.28
2019-04-03T09:04:17.732Z,13.30
2019-04-03T09:05:17.041Z,13.27
2019-04-03T09:06:16.946Z,13.31
2019-04-03T09:07:17.145Z,13.37
2019-04-03T09:08:17.248Z,13.46
2019-04-03T09:09:17.424Z,13.52
2019-04-03T09:10:17.599Z,13.49
2019-04-03T09:11:17.777Z,13.50
2019-04-03T09:12:18.191Z,13.52
2019-04-03T09:13:22.403Z,13.44
2019-04-03T09:14:20.100Z,13.42
2019-04-03T09:15:18.488Z,13.22
2019-04-03T09:16:18.662Z,13.23
2019-04-03T09:17:18.882Z,13.19
2019-04-03T09:18:19.009Z,13.25
2019-04-03T09:19:19.185Z,13.25
2019-04-03T09:20:19.362Z,13.23
2019-04-03T09:21:19.557Z,13.19
2019-04-03T09:22:21.841Z,13.33
2019-04-03T09:23:19.881Z,13.20
2019-04-03T09:24:20.058Z,13.25
2019-04-03T09:25:20.233Z,13.15
2019-04-03T09:26:20.412Z,13.09
2019-04-03T09:27:20.828Z,13.09
2019-04-03T09:28:20.759Z,13.16
2019-04-03T09:29:21.180Z,13.11
2019-04-03T09:30:21.115Z,13.20
2019-04-03T09:31:21.300Z,13.23
2019-04-03T09:32:22.759Z,13.38
2019-04-03T09:33:24.582Z,13.46
2019-04-03T09:34:21.890Z,13.44
2019-04-03T09:35:22.167Z,13.54
2019-04-03T09:36:22.175Z,13.60
2019-04-03T09:37:22.940Z,13.46
2019-04-03T09:38:22.480Z,13.46
2019-04-03T09:39:22.943Z,13.42
2019-04-03T09:40:22.788Z,13.44
2019-04-03T09:41:22.973Z,13.60
2019-04-03T09:42:23.143Z,13.72
2019-04-03T09:43:23.338Z,13.63
2019-04-03T09:44:25.469Z,13.57
2019-04-03T09:45:23.674Z,13.28
2019-04-03T09:46:23.850Z,13.27
2019-04-03T09:47:25.017Z,13.09
2019-04-03T09:48:24.175Z,13.16
2019-04-03T09:49:24.465Z,13.22
2019-04-03T09:50:24.525Z,13.39
2019-04-03T09:51:24.702Z,13.59
2019-04-03T09:52:37.371Z,13.81
2019-04-03T09:53:26.338Z,13.97
2019-04-03T09:54:27.320Z,14.12
2019-04-03T09:55:25.412Z,14.43
2019-04-03T09:56:25.596Z,14.58
2019-04-03T09:57:25.764Z,14.78
2019-04-03T09:58:26.268Z,14.82
2019-04-03T09:59:26.414Z,15.02
2019-04-03T10:00:26.308Z,14.59
2019-04-03T10:01:26.473Z,14.37
2019-04-03T10:02:26.750Z,14.37
2019-04-03T10:03:27.049Z,14.14
2019-04-03T10:04:27.040Z,14.12
2019-04-03T10:05:28.962Z,14.36
2019-04-03T10:06:30.494Z,14.36
2019-04-03T10:07:27.961Z,14.45
2019-04-03T10:08:27.713Z,14.45
2019-04-03T10:09:27.900Z,14.35
2019-04-03T10:10:28.133Z,14.07
2019-04-03T10:11:28.248Z,14.04
2019-04-03T10:12:28.422Z,13.87
2019-04-03T10:13:28.598Z,13.87
2019-04-03T10:14:29.074Z,13.78
2019-04-03T10:15:31.529Z,13.74
2019-04-03T10:16:29.179Z,13.97
2019-04-03T10:17:29.361Z,14.11
2019-04-03T10:18:29.531Z,14.30
2019-04-03T10:19:29.700Z,14.30
2019-04-03T10:20:29.881Z,14.48
2019-04-03T10:21:32.560Z,14.51
2019-04-03T10:22:30.575Z,14.29
2019-04-03T10:23:30.419Z,14.44
2019-04-03T10:24:31.061Z,14.55
2019-04-03T10:25:30.776Z,14.60
2019-04-03T10:26:31.837Z,14.58
2019-04-03T10:27:31.367Z,14.53
2019-04-03T10:28:31.315Z,14.68
2019-04-03T10:29:31.491Z,14.69
2019-04-03T10:30:31.800Z,14.53
2019-04-03T10:31:31.842Z,14.32
2019-04-03T10:32:32.302Z,14.36
2019-04-03T10:33:32.540Z,14.32
2019-04-03T10:34:35.726Z,14.53
2019-04-03T10:35:32.834Z,14.44
2019-04-03T10:36:32.813Z,14.51
2019-04-03T10:37:32.935Z,14.30
2019-04-03T10:38:33.098Z,14.41
2019-04-03T10:40:34.691Z,14.40
2019-04-03T10:41:34.760Z,14.44
2019-04-03T10:42:37.224Z,14.36
2019-04-03T10:43:42.412Z,14.40
2019-04-03T10:44:34.257Z,14.33
2019-04-03T10:45:34.390Z,14.45
2019-04-03T10:46:35.491Z,14.47
2019-04-03T10:47:42.077Z,14.48
2019-04-03T10:48:34.947Z,14.58
2019-04-03T10:49:35.765Z,14.55
2019-04-03T10:50:37.921Z,14.59
2019-04-03T10:51:35.491Z,14.51
2019-04-03T10:52:35.667Z,14.66
2019-04-03T10:53:35.853Z,14.62
2019-04-03T10:54:38.136Z,14.65
2019-04-03T10:55:36.203Z,14.55
2019-04-03T10:56:36.378Z,14.62
2019-04-03T10:57:36.554Z,14.72
2019-04-03T10:58:38.110Z,14.73
2019-04-03T10:59:36.973Z,14.91
2019-04-03T11:00:37.101Z,14.92
2019-04-03T11:01:37.273Z,15.00
2019-04-03T11:02:37.613Z,14.97
2019-04-03T11:03:37.617Z,14.85
2019-04-03T11:04:40.889Z,14.91
2019-04-03T11:05:38.291Z,14.88
2019-04-03T11:06:38.140Z,14.82
2019-04-03T11:07:38.321Z,14.70
2019-04-03T11:08:38.497Z,14.62
2019-04-03T11:09:39.041Z,14.58
2019-04-03T11:10:38.850Z,14.54
2019-04-03T11:11:42.504Z,14.59
2019-04-03T11:12:39.189Z,14.62
2019-04-03T11:13:39.363Z,14.54
2019-04-03T11:14:39.982Z,14.58
2019-04-03T11:15:39.731Z,14.68
2019-04-03T11:16:40.125Z,14.59
2019-04-03T11:17:40.785Z,14.59
2019-04-03T11:18:40.427Z,14.37
2019-04-03T11:19:41.214Z,14.36
2019-04-03T11:20:41.430Z,14.47
2019-04-03T11:21:43.341Z,14.41
2019-04-03T11:22:42.740Z,14.44
2019-04-03T11:23:44.873Z,14.44
2019-04-03T11:24:42.236Z,14.59
2019-04-03T11:25:42.231Z,14.63
2019-04-03T11:26:41.873Z,14.63
2019-04-03T11:27:44.667Z,14.44
2019-04-03T11:28:42.049Z,14.48
2019-04-03T11:29:42.907Z,14.50
2019-04-03T11:30:42.402Z,14.53
2019-04-03T11:31:43.318Z,14.36
2019-04-03T11:32:42.804Z,14.35
2019-04-03T11:33:45.589Z,14.32
2019-04-03T11:34:43.514Z,14.30
2019-04-03T11:35:46.828Z,14.26
2019-04-03T11:36:47.228Z,14.29
2019-04-03T11:37:43.794Z,14.25
2019-04-03T11:38:43.942Z,14.23
2019-04-03T11:39:46.238Z,14.15
2019-04-03T11:40:53.793Z,14.26
2019-04-03T11:41:44.565Z,14.23
2019-04-03T11:42:44.648Z,14.43
2019-04-03T11:43:44.840Z,14.29
2019-04-03T11:44:45.945Z,14.35
2019-04-03T11:45:45.267Z,14.22
2019-04-03T11:46:46.684Z,14.26
2019-04-03T11:47:46.399Z,14.26
2019-04-03T11:48:46.056Z,14.04
2019-04-03T11:49:46.984Z,14.10
2019-04-03T11:50:46.762Z,14.07
2019-04-03T11:51:46.535Z,14.08
2019-04-03T11:52:46.598Z,13.92
2019-04-03T11:53:46.847Z,13.85
2019-04-03T11:54:47.116Z,13.78
2019-04-03T11:55:47.800Z,13.79
2019-04-03T11:56:47.210Z,13.71
2019-04-03T11:57:49.286Z,13.78
2019-04-03T11:58:47.572Z,13.68
2019-04-03T11:59:47.920Z,13.68
2019-04-03T12:00:48.122Z,13.86
2019-04-03T12:01:48.034Z,13.89
2019-04-03T12:02:48.283Z,13.87
2019-04-03T12:03:50.644Z,13.86
2019-04-03T12:04:48.691Z,13.92
2019-04-03T12:05:48.785Z,13.99
2019-04-03T12:06:51.349Z,14.03
2019-04-03T12:07:49.104Z,14.00
2019-04-03T12:08:50.299Z,14.18
2019-04-03T12:09:49.456Z,14.17
2019-04-03T12:10:49.671Z,14.17
2019-04-03T12:11:50.173Z,14.26
2019-04-03T12:12:50.247Z,14.37
2019-04-03T12:13:50.386Z,14.68
2019-04-03T12:14:50.360Z,14.62
2019-04-03T12:15:53.538Z,14.37
2019-04-03T12:16:50.771Z,14.35
2019-04-03T12:17:51.075Z,14.40
2019-04-03T12:18:51.067Z,14.73
2019-04-03T12:19:51.245Z,14.65
2019-04-03T12:20:51.422Z,14.70
2019-04-03T12:21:52.237Z,14.55
2019-04-03T12:22:54.011Z,14.62
2019-04-03T12:23:51.968Z,14.72
2019-04-03T12:24:52.134Z,14.86
2019-04-03T12:25:52.303Z,14.73
2019-04-03T12:26:55.759Z,14.77
2019-04-03T12:27:52.657Z,14.79
2019-04-03T12:28:52.843Z,15.03
2019-04-03T12:29:54.510Z,15.06
2019-04-03T12:30:53.190Z,15.18
2019-04-03T12:31:53.726Z,15.31
2019-04-03T12:32:53.550Z,15.31
2019-04-03T12:33:59.036Z,15.42
2019-04-03T12:34:54.291Z,15.65
2019-04-03T12:35:54.078Z,15.51
2019-04-03T12:36:54.255Z,15.64
2019-04-03T12:37:54.930Z,15.70
2019-04-03T12:38:57.440Z,15.94
2019-04-03T12:41:36.344Z,16.01
2019-04-03T12:42:35.769Z,15.88
2019-04-03T12:43:35.476Z,16.02
2019-04-03T12:44:35.667Z,15.80
2019-04-03T12:45:35.865Z,15.73
2019-04-03T12:46:36.003Z,15.67
2019-04-03T12:47:36.253Z,15.83
2019-04-03T12:48:36.364Z,15.84
2019-04-03T12:49:36.848Z,15.76
2019-04-03T12:50:36.933Z,15.75
2019-04-03T12:51:36.919Z,15.67
2019-04-03T12:52:37.087Z,15.77
2019-04-03T12:53:37.255Z,15.51
2019-04-03T12:54:37.636Z,15.62
2019-04-03T12:55:37.622Z,15.51
2019-04-03T12:56:38.199Z,15.65
2019-04-03T12:57:39.242Z,15.73
2019-04-03T12:58:38.574Z,15.86
2019-04-03T12:59:39.960Z,15.72
2019-04-03T13:00:38.537Z,15.59
2019-04-03T13:01:38.945Z,15.64